Krakow, Poland
Current Conditions -  °F | °C
As of 6:00 PM on Sunday 23 Nov 2014 (Local Time) from EPKK Reporting Station
Broken Clouds Broken Clouds  
Wind Chill: 36°   Ceiling: 2300
Heat Index: 41°   Visibility: 6mi
Dew Point: 34°   Wind: 8mph
Humidity: 76%   Direction: 90°E
Pressure: 30.42"   Gusts: NA
Location:  50°N, 19.99°E
Report Text: EPKK 231600Z 09007KT 9999 BKN023 05/01 Q1030
Loading
Personal Weather Stations






























Interactive Weather Map New forecast layout! Learn more

10-Day Weather Forecast

Advertisements
Track Severe Weather on mobile